createdAt,value
2024-04-11T00:01:00.190Z,99576.78
2024-04-11T00:03:28.267Z,99559.28
2024-04-11T00:05:57.418Z,99574.88
2024-04-11T00:08:28.851Z,99564.34
2024-04-11T00:10:58.280Z,99566.06
2024-04-11T00:13:27.234Z,99564.28
2024-04-11T00:15:57.138Z,99563.47
2024-04-11T00:18:27.462Z,99556.41
2024-04-11T00:20:57.023Z,99559.09
2024-04-11T00:23:25.988Z,99555.53
2024-04-11T00:25:59.367Z,99538.13
2024-04-11T00:28:28.362Z,99549.56
2024-04-11T00:30:56.632Z,99537.44
2024-04-11T00:33:24.889Z,99549.56
2024-04-11T00:35:54.052Z,99533.97
2024-04-11T00:38:23.719Z,99542.56
2024-04-11T00:40:59.674Z,99541.78
2024-04-11T00:43:28.594Z,99539.34
2024-04-11T00:45:59.542Z,99541.06
2024-04-11T00:48:28.692Z,99549.88
2024-04-11T00:50:57.901Z,99537.59
2024-04-11T00:53:31.748Z,99535.03
2024-04-11T00:55:59.979Z,99541.97
2024-04-11T00:58:28.357Z,99538.75
2024-04-11T01:00:56.318Z,99533.66
2024-04-11T01:03:24.488Z,99539.69
2024-04-11T01:05:53.912Z,99543.16
2024-04-11T01:08:22.190Z,99552.09
2024-04-11T01:10:50.260Z,99554.75
2024-04-11T01:13:19.439Z,99536.38
2024-04-11T01:15:50.653Z,99546.78
2024-04-11T01:18:21.165Z,99550.41
2024-04-11T01:20:49.369Z,99536.31
2024-04-11T01:23:18.581Z,99524.03
2024-04-11T01:25:46.628Z,99524.16
2024-04-11T01:28:15.164Z,99518.94
2024-04-11T01:30:43.098Z,99533.75
2024-04-11T01:33:16.484Z,99532.97
2024-04-11T01:35:45.051Z,99529.53
2024-04-11T01:38:13.416Z,99519.13
2024-04-11T01:40:49.512Z,99515.50
2024-04-11T01:43:18.003Z,99522.56
2024-04-11T01:45:46.106Z,99509.44
2024-04-11T01:48:15.313Z,99515.56
2024-04-11T01:50:43.867Z,99517.25
2024-04-11T01:53:14.708Z,99515.50
2024-04-11T01:55:46.022Z,99528.69
2024-04-11T01:58:14.418Z,99511.16
2024-04-11T02:00:42.866Z,99516.38
2024-04-11T02:03:11.669Z,99509.38
2024-04-11T02:05:39.899Z,99514.63
2024-04-11T02:08:08.390Z,99502.34
2024-04-11T02:10:39.722Z,99501.53
2024-04-11T02:13:10.880Z,99488.53
2024-04-11T02:15:39.761Z,99474.41
2024-04-11T02:18:09.026Z,99497.97
2024-04-11T02:20:37.012Z,99491.81
2024-04-11T02:23:06.609Z,99488.34
2024-04-11T02:25:34.476Z,99486.69
2024-04-11T02:28:02.623Z,99496.28
2024-04-11T02:30:30.389Z,99501.63
2024-04-11T02:32:58.899Z,99496.34
2024-04-11T02:35:26.916Z,99486.81
2024-04-11T02:37:55.635Z,99489.44
2024-04-11T02:40:23.627Z,99480.66
2024-04-11T02:42:51.398Z,99480.63
2024-04-11T02:45:19.638Z,99494.75
2024-04-11T02:47:48.385Z,99489.53
2024-04-11T02:50:16.970Z,99482.56
2024-04-11T02:52:45.070Z,99466.03
2024-04-11T02:55:16.592Z,99482.50
2024-04-11T02:57:46.995Z,99473.78
2024-04-11T03:00:18.526Z,99457.94
2024-04-11T03:02:47.548Z,99455.31
2024-04-11T03:05:17.771Z,99474.56
2024-04-11T03:07:46.091Z,99468.34
2024-04-11T03:10:14.338Z,99466.59
2024-04-11T03:12:42.226Z,99465.59
2024-04-11T03:15:10.849Z,99466.47
2024-04-11T03:17:39.049Z,99454.91
2024-04-11T03:20:07.668Z,99469.06
2024-04-11T03:22:35.971Z,99443.47
2024-04-11T03:25:06.005Z,99436.53
2024-04-11T03:27:34.138Z,99459.97
2024-04-11T03:30:02.240Z,99444.88
2024-04-11T03:32:31.964Z,99433.56
2024-04-11T03:35:00.281Z,99428.16
2024-04-11T03:37:28.795Z,99432.41
2024-04-11T03:39:59.382Z,99436.59
2024-04-11T03:42:28.736Z,99440.00
2024-04-11T03:44:58.156Z,99439.66
2024-04-11T03:47:27.833Z,99437.78
2024-04-11T03:49:55.782Z,99449.13
2024-04-11T03:52:28.664Z,99442.78
2024-04-11T03:54:58.087Z,99440.13
2024-04-11T03:57:27.044Z,99460.16
2024-04-11T03:59:55.441Z,99448.69
2024-04-11T04:02:23.847Z,99459.91
2024-04-11T04:04:51.935Z,99456.38
2024-04-11T04:07:19.944Z,99444.03
2024-04-11T04:09:50.186Z,99463.31
2024-04-11T04:12:18.294Z,99442.13
2024-04-11T04:14:46.928Z,99446.59
2024-04-11T04:17:15.165Z,99447.47
2024-04-11T04:19:43.644Z,99452.63
2024-04-11T04:22:15.102Z,99454.34
2024-04-11T04:24:42.966Z,99458.78
2024-04-11T04:27:10.924Z,99458.66
2024-04-11T04:29:40.261Z,99454.84
2024-04-11T04:32:09.872Z,99477.75
2024-04-11T04:34:38.098Z,99451.81
2024-04-11T04:37:09.315Z,99471.88
2024-04-11T04:39:42.879Z,99460.03
2024-04-11T04:42:11.032Z,99439.22
2024-04-11T04:44:39.162Z,99446.88
2024-04-11T04:47:17.802Z,99410.63
2024-04-11T04:49:47.132Z,99456.94
2024-04-11T04:52:15.391Z,99446.75
2024-04-11T04:54:43.933Z,99414.97
2024-04-11T04:57:13.464Z,99481.81
2024-04-11T04:59:42.158Z,99454.09
2024-04-11T05:02:13.698Z,99439.34
2024-04-11T05:04:42.313Z,99467.97
2024-04-11T05:07:13.574Z,99457.72
2024-04-11T05:09:47.638Z,99469.41
2024-04-11T05:12:16.207Z,99466.88
2024-04-11T05:14:47.284Z,99449.75
2024-04-11T05:17:16.553Z,99457.44
2024-04-11T05:19:44.496Z,99448.53
2024-04-11T05:22:12.815Z,99458.25
2024-04-11T05:24:41.487Z,99460.56
2024-04-11T05:27:10.370Z,99465.81
2024-04-11T05:29:38.740Z,99466.53
2024-04-11T05:32:10.474Z,99458.47
2024-04-11T05:34:39.059Z,99459.56
2024-04-11T05:37:07.347Z,99465.56
2024-04-11T05:39:35.200Z,99464.94
2024-04-11T05:42:04.098Z,99459.91
2024-04-11T05:44:32.549Z,99468.16
2024-04-11T05:47:01.043Z,99477.47
2024-04-11T05:49:29.174Z,99470.75
2024-04-11T05:51:57.857Z,99478.47
2024-04-11T05:54:25.956Z,99452.13
2024-04-11T05:56:55.105Z,99471.66
2024-04-11T05:59:23.917Z,99471.66
2024-04-11T06:01:52.487Z,99470.72
2024-04-11T06:04:20.514Z,99436.16
2024-04-11T06:06:48.996Z,99457.16
2024-04-11T06:09:18.025Z,99479.75
2024-04-11T06:11:46.480Z,99460.25
2024-04-11T06:14:15.379Z,99480.84
2024-04-11T06:16:43.581Z,99482.78
2024-04-11T06:19:12.416Z,99479.09
2024-04-11T06:21:49.333Z,99482.19
2024-04-11T06:24:19.978Z,99481.06
2024-04-11T06:26:48.271Z,99482.28
2024-04-11T06:29:21.392Z,99477.09
2024-04-11T06:31:49.637Z,99459.13
2024-04-11T06:34:18.943Z,99476.66
2024-04-11T06:36:51.105Z,99475.78
2024-04-11T06:39:19.546Z,99462.00
2024-04-11T06:41:50.878Z,99470.47
2024-04-11T06:44:18.772Z,99478.72
2024-04-11T06:46:49.057Z,99471.44
2024-04-11T06:49:18.479Z,99469.59
2024-04-11T06:51:49.081Z,99474.13
2024-04-11T06:54:19.973Z,99479.78
2024-04-11T06:56:50.852Z,99475.28
2024-04-11T06:59:19.016Z,99480.00
2024-04-11T07:01:49.792Z,99494.69
2024-04-11T07:04:17.921Z,99490.47
2024-04-11T07:06:47.847Z,99482.28
2024-04-11T07:09:16.339Z,99481.31
2024-04-11T07:11:45.613Z,99489.50
2024-04-11T07:14:17.484Z,99497.06
2024-04-11T07:16:58.821Z,99505.22
2024-04-11T07:19:28.816Z,99494.00
2024-04-11T07:21:57.040Z,99497.44
2024-04-11T07:24:25.032Z,99508.00
2024-04-11T07:26:53.955Z,99510.59
2024-04-11T07:29:24.406Z,99503.19
2024-04-11T07:31:54.191Z,99503.97
2024-04-11T07:34:23.858Z,99510.19
2024-04-11T07:36:53.045Z,99479.56
2024-04-11T07:39:22.003Z,99494.38
2024-04-11T07:42:02.642Z,99488.34
2024-04-11T07:44:33.493Z,99488.00
2024-04-11T07:47:15.560Z,99511.94
2024-04-11T07:49:50.078Z,99509.22
2024-04-11T07:52:18.274Z,99488.47
2024-04-11T07:54:48.388Z,99519.94
2024-04-11T07:57:21.520Z,99503.28
2024-04-11T07:59:50.689Z,99521.41
2024-04-11T08:02:20.639Z,99521.59
2024-04-11T08:04:49.840Z,99528.53
2024-04-11T08:07:17.700Z,99534.06
2024-04-11T08:09:57.649Z,99536.69
2024-04-11T08:12:28.770Z,99526.44
2024-04-11T08:14:57.348Z,99541.78
2024-04-11T08:17:27.481Z,99528.28
2024-04-11T08:19:58.566Z,99546.75
2024-04-11T08:22:29.961Z,99552.56
2024-04-11T08:24:58.728Z,99546.09
2024-04-11T08:27:26.686Z,99553.19
2024-04-11T08:29:54.989Z,99554.00
2024-04-11T08:32:23.815Z,99553.91
2024-04-11T08:34:54.194Z,99550.97
2024-04-11T08:37:24.086Z,99557.75
2024-04-11T08:39:52.405Z,99555.53
2024-04-11T08:42:20.927Z,99552.78
2024-04-11T08:44:52.670Z,99547.31
2024-04-11T08:47:22.335Z,99547.50
2024-04-11T08:49:52.340Z,99560.16
2024-04-11T08:52:25.683Z,99564.28
2024-04-11T08:54:55.007Z,99565.75
2024-04-11T08:57:23.361Z,99566.16
2024-04-11T08:59:53.051Z,99580.69
2024-04-11T09:02:21.192Z,99576.03
2024-04-11T09:04:56.640Z,99578.44
2024-04-11T09:07:28.484Z,99580.47
2024-04-11T09:09:57.765Z,99584.78
2024-04-11T09:12:29.397Z,99576.81
2024-04-11T09:14:57.652Z,99590.06
2024-04-11T09:17:26.166Z,99585.84
2024-04-11T09:20:07.025Z,99595.47
2024-04-11T09:22:36.288Z,99600.13
2024-04-11T09:25:11.364Z,99597.31
2024-04-11T09:27:39.872Z,99587.59
2024-04-11T09:30:08.448Z,99601.19
2024-04-11T09:32:40.570Z,99592.22
2024-04-11T09:35:14.185Z,99598.44
2024-04-11T09:37:42.287Z,99605.09
2024-04-11T09:40:21.195Z,99611.41
2024-04-11T09:42:50.539Z,99606.19
2024-04-11T09:45:23.970Z,99593.22
2024-04-11T09:47:53.416Z,99598.38
2024-04-11T09:50:26.232Z,99620.63
2024-04-11T09:52:54.812Z,99612.72
2024-04-11T09:55:34.914Z,99607.38
2024-04-11T09:58:09.363Z,99612.47
2024-04-11T10:00:56.140Z,99610.44
2024-04-11T10:03:24.216Z,99635.19
2024-04-11T10:05:52.377Z,99634.78
2024-04-11T10:08:35.237Z,99633.88
2024-04-11T10:11:12.014Z,99642.13
2024-04-11T10:13:45.886Z,99636.66
2024-04-11T10:16:24.338Z,99641.66
2024-04-11T10:19:07.960Z,99632.03
2024-04-11T10:21:48.298Z,99656.97
2024-04-11T10:24:29.786Z,99650.31
2024-04-11T10:27:21.866Z,99658.22
2024-04-11T10:29:52.379Z,99643.09
2024-04-11T10:32:28.796Z,99662.72
2024-04-11T10:35:00.451Z,99673.97
2024-04-11T10:37:34.986Z,99655.91
2024-04-11T10:40:03.655Z,99658.78
2024-04-11T10:42:47.934Z,99659.66
2024-04-11T10:45:25.782Z,99663.66
2024-04-11T10:47:53.922Z,99656.00
2024-04-11T10:50:25.673Z,99641.25
2024-04-11T10:52:53.707Z,99644.22
2024-04-11T10:55:25.046Z,99638.31
2024-04-11T10:58:13.954Z,99665.22
2024-04-11T11:01:14.358Z,99661.94
2024-04-11T11:03:49.360Z,99659.84
2024-04-11T11:06:31.009Z,99661.31
2024-04-11T11:09:15.366Z,99667.63
2024-04-11T11:11:45.301Z,99680.84
2024-04-11T11:14:19.454Z,99681.66
2024-04-11T11:16:50.452Z,99673.28
2024-04-11T11:19:19.829Z,99674.03
2024-04-11T11:21:53.053Z,99686.22
2024-04-11T11:24:26.121Z,99662.47
2024-04-11T11:26:58.356Z,99685.25
2024-04-11T11:29:31.242Z,99675.63
2024-04-11T11:32:04.207Z,99684.81
2024-04-11T11:34:37.549Z,99675.59
2024-04-11T11:37:14.518Z,99695.53
2024-04-11T11:39:52.239Z,99686.19
2024-04-11T11:42:33.527Z,99691.00
2024-04-11T11:45:02.650Z,99700.34
2024-04-11T11:47:40.028Z,99693.63
2024-04-11T11:50:09.445Z,99698.28
2024-04-11T11:52:54.978Z,99696.69
2024-04-11T11:55:28.025Z,99691.28
2024-04-11T11:58:00.560Z,99706.50
2024-04-11T12:00:52.673Z,99705.72
2024-04-11T12:03:31.168Z,99715.19
2024-04-11T12:06:06.763Z,99709.09
2024-04-11T12:08:39.763Z,99706.22
2024-04-11T12:11:14.729Z,99704.38
2024-04-11T12:13:53.474Z,99701.44
2024-04-11T12:16:25.035Z,99676.63
2024-04-11T12:18:56.735Z,99705.22
2024-04-11T12:21:28.668Z,99692.09
2024-04-11T12:23:58.626Z,99692.91
2024-04-11T12:26:31.576Z,99704.44
2024-04-11T12:28:59.530Z,99710.13
2024-04-11T12:31:27.989Z,99701.22
2024-04-11T12:33:58.559Z,99691.88
2024-04-11T12:36:53.294Z,99687.97
2024-04-11T12:39:35.112Z,99702.84
2024-04-11T12:42:04.605Z,99696.00
2024-04-11T12:44:38.731Z,99680.25
2024-04-11T12:47:16.958Z,99661.56
2024-04-11T12:49:49.968Z,99686.47
2024-04-11T12:55:08.027Z,99677.25
2024-04-11T12:57:39.009Z,99658.03
2024-04-11T13:00:31.799Z,99679.75
2024-04-11T13:03:09.260Z,99676.81
2024-04-11T13:05:52.936Z,99682.22
2024-04-11T13:08:30.156Z,99677.97
2024-04-11T13:11:10.094Z,99662.00
2024-04-11T13:13:42.334Z,99688.75
2024-04-11T13:16:14.393Z,99699.84
2024-04-11T13:18:52.642Z,99698.97
2024-04-11T13:21:33.419Z,99678.75
2024-04-11T13:24:01.724Z,99702.50
2024-04-11T13:26:37.352Z,99702.06
2024-04-11T13:29:09.410Z,99654.53
2024-04-11T13:31:37.619Z,99697.34
2024-04-11T13:34:08.960Z,99686.19
2024-04-11T13:36:37.032Z,99705.44
2024-04-11T13:39:04.909Z,99695.84
2024-04-11T13:41:47.107Z,99707.22
2024-04-11T13:44:27.538Z,99682.78
2024-04-11T13:46:58.269Z,99716.75
2024-04-11T13:49:39.141Z,99720.81
2024-04-11T13:52:28.361Z,99702.09
2024-04-11T13:54:59.396Z,99703.56
2024-04-11T13:57:34.159Z,99724.44
2024-04-11T14:00:10.892Z,99717.66
2024-04-11T14:03:02.193Z,99717.66
2024-04-11T14:05:47.492Z,99726.78
2024-04-11T14:08:15.649Z,99728.03
2024-04-11T14:10:44.135Z,99722.13
2024-04-11T14:13:16.760Z,99718.06
2024-04-11T14:15:46.496Z,99731.13
2024-04-11T14:18:19.913Z,99715.97
2024-04-11T14:20:52.336Z,99733.72
2024-04-11T14:23:48.907Z,99702.50
2024-04-11T14:26:26.487Z,99726.50
2024-04-11T14:28:56.585Z,99719.19
2024-04-11T14:31:33.401Z,99727.34
2024-04-11T14:34:01.585Z,99723.81
2024-04-11T14:36:29.558Z,99738.16
2024-04-11T14:39:07.261Z,99716.44
2024-04-11T14:41:37.950Z,99728.81
2024-04-11T14:44:11.009Z,99730.75
2024-04-11T14:46:39.613Z,99720.19
2024-04-11T14:49:07.552Z,99722.09
2024-04-11T14:51:42.506Z,99727.56
2024-04-11T14:54:29.433Z,99719.97
2024-04-11T14:57:01.359Z,99715.53
2024-04-11T14:59:32.517Z,99721.69
2024-04-11T15:02:01.105Z,99694.75
2024-04-11T15:04:30.134Z,99723.00
2024-04-11T15:07:02.907Z,99712.63
2024-04-11T15:09:31.583Z,99710.94
2024-04-11T15:11:59.783Z,99715.38
2024-04-11T15:14:34.684Z,99712.63
2024-04-11T15:17:21.187Z,99720.56
2024-04-11T15:19:53.763Z,99703.75
2024-04-11T15:22:25.842Z,99712.44
2024-04-11T15:24:57.210Z,99704.56
2024-04-11T15:27:31.681Z,99695.59
2024-04-11T15:30:07.415Z,99710.63
2024-04-11T15:32:39.893Z,99709.78
2024-04-11T15:35:12.058Z,99706.41
2024-04-11T15:37:58.501Z,99687.03
2024-04-11T15:40:27.316Z,99696.97
2024-04-11T15:42:57.741Z,99694.66
2024-04-11T15:45:32.394Z,99695.63
2024-04-11T15:48:01.561Z,99705.31
2024-04-11T15:50:36.351Z,99699.41
2024-04-11T15:53:09.234Z,99698.41
2024-04-11T15:55:50.703Z,99694.25
2024-04-11T15:58:26.311Z,99689.34
2024-04-11T16:00:55.294Z,99697.47
2024-04-11T16:03:24.180Z,99702.97
2024-04-11T16:05:55.157Z,99692.38
2024-04-11T16:08:27.124Z,99677.75
2024-04-11T16:11:02.386Z,99687.59
2024-04-11T16:13:38.861Z,99690.44
2024-04-11T16:16:11.933Z,99684.63
2024-04-11T16:18:41.816Z,99710.25
2024-04-11T16:21:16.242Z,99725.47
2024-04-11T16:23:58.741Z,99719.53
2024-04-11T16:26:30.028Z,99707.41
2024-04-11T16:29:10.440Z,99688.13
2024-04-11T16:31:41.214Z,99726.00
2024-04-11T16:34:09.339Z,99729.56
2024-04-11T16:36:49.375Z,99719.16
2024-04-11T16:39:33.396Z,99717.53
2024-04-11T16:42:16.884Z,99737.91
2024-04-11T16:45:04.557Z,99728.41
2024-04-11T16:47:41.514Z,99725.88
2024-04-11T16:50:10.454Z,99736.44
2024-04-11T16:52:40.568Z,99736.56
2024-04-11T16:55:28.328Z,99725.25
2024-04-11T16:58:06.627Z,99716.50
2024-04-11T17:00:45.118Z,99740.44
2024-04-11T17:03:19.952Z,99737.06
2024-04-11T17:05:57.620Z,99744.19
2024-04-11T17:08:27.994Z,99719.78
2024-04-11T17:10:57.711Z,99728.56
2024-04-11T17:13:26.063Z,99740.09
2024-04-11T17:16:16.816Z,99746.31
2024-04-11T17:18:57.656Z,99735.81
2024-04-11T17:21:50.905Z,99747.25
2024-04-11T17:24:22.370Z,99737.66
2024-04-11T17:26:59.648Z,99737.66
2024-04-11T17:29:56.912Z,99740.38
2024-04-11T17:32:32.631Z,99764.19
2024-04-11T17:35:19.799Z,99760.69
2024-04-11T17:37:51.484Z,99750.09
2024-04-11T17:40:37.898Z,99751.97
2024-04-11T17:43:19.203Z,99758.09
2024-04-11T17:45:58.256Z,99765.19
2024-04-11T17:48:43.286Z,99757.28
2024-04-11T17:51:18.632Z,99770.53
2024-04-11T17:53:49.019Z,99762.63
2024-04-11T17:56:25.392Z,99760.91
2024-04-11T17:58:54.227Z,99759.16
2024-04-11T18:01:25.353Z,99769.72
2024-04-11T18:04:00.318Z,99748.69
2024-04-11T18:06:40.655Z,99754.00
2024-04-11T18:09:11.625Z,99766.34
2024-04-11T18:11:58.449Z,99759.38
2024-04-11T18:14:30.203Z,99761.16
2024-04-11T18:17:01.694Z,99739.28
2024-04-11T18:19:31.003Z,99760.31
2024-04-11T18:22:00.164Z,99757.72
2024-04-11T18:24:34.394Z,99755.13
2024-04-11T18:27:06.426Z,99754.31
2024-04-11T18:29:34.518Z,99749.97
2024-04-11T18:32:06.122Z,99758.72
2024-04-11T18:34:36.684Z,99743.88
2024-04-11T18:37:04.825Z,99750.91
2024-04-11T18:39:34.647Z,99761.38
2024-04-11T18:42:08.875Z,99729.84
2024-04-11T18:44:51.765Z,99748.25
2024-04-11T18:47:38.969Z,99752.72
2024-04-11T18:50:24.960Z,99757.16
2024-04-11T18:53:03.215Z,99757.16
2024-04-11T18:55:51.424Z,99740.53
2024-04-11T18:58:19.382Z,99734.44
2024-04-11T19:00:48.124Z,99732.69
2024-04-11T19:03:19.985Z,99745.00
2024-04-11T19:05:50.099Z,99747.66
2024-04-11T19:08:19.108Z,99745.94
2024-04-11T19:10:57.664Z,99742.41
2024-04-11T19:13:26.520Z,99730.16
2024-04-11T19:16:06.758Z,99730.16
2024-04-11T19:18:44.647Z,99742.50
2024-04-11T19:21:18.425Z,99719.72
2024-04-11T19:23:50.270Z,99721.50
2024-04-11T19:26:19.540Z,99738.22
2024-04-11T19:28:47.823Z,99740.00
2024-04-11T19:31:22.394Z,99730.34
2024-04-11T19:33:52.058Z,99728.59
2024-04-11T19:36:23.484Z,99726.88
2024-04-11T19:38:57.311Z,99725.13
2024-04-11T19:41:28.954Z,99723.44
2024-04-11T19:43:57.035Z,99716.44
2024-04-11T19:46:25.494Z,99697.16
2024-04-11T19:48:55.118Z,99706.88
2024-04-11T19:51:28.969Z,99715.69
2024-04-11T19:54:00.680Z,99711.38
2024-04-11T19:56:35.107Z,99723.63
2024-04-11T19:59:03.740Z,99715.75
2024-04-11T20:01:47.909Z,99721.88
2024-04-11T20:04:38.257Z,99713.13
2024-04-11T20:07:10.616Z,99710.50
2024-04-11T20:09:41.347Z,99714.88
2024-04-11T20:12:15.707Z,99727.22
2024-04-11T20:14:50.834Z,99709.66
2024-04-11T20:17:31.267Z,99706.13
2024-04-11T20:20:02.665Z,99705.25
2024-04-11T20:22:37.847Z,99692.97
2024-04-11T20:25:15.782Z,99680.69
2024-04-11T20:27:48.941Z,99696.47
2024-04-11T20:30:18.403Z,99692.97
2024-04-11T20:32:50.681Z,99702.66
2024-04-11T20:35:45.313Z,99700.06
2024-04-11T20:38:17.999Z,99700.94
2024-04-11T20:40:47.341Z,99672.88
2024-04-11T20:43:34.720Z,99692.16
2024-04-11T20:46:09.392Z,99680.75
2024-04-11T20:48:54.840Z,99674.63
2024-04-11T20:51:41.696Z,99689.56
2024-04-11T20:54:28.412Z,99658.84
2024-04-11T20:57:15.036Z,99664.97
2024-04-11T21:00:01.637Z,99676.38
2024-04-11T21:02:51.429Z,99678.19
2024-04-11T21:05:38.374Z,99664.13
2024-04-11T21:08:24.899Z,99669.41
2024-04-11T21:11:11.587Z,99658.03
2024-04-11T21:13:58.758Z,99668.56
2024-04-11T21:16:45.381Z,99668.56
2024-04-11T21:19:32.370Z,99671.22
2024-04-11T21:22:19.216Z,99678.22
2024-04-11T21:25:05.899Z,99639.63
2024-04-11T21:27:52.399Z,99662.44
2024-04-11T21:30:39.246Z,99665.09
2024-04-11T21:33:26.591Z,99646.69
2024-04-11T21:35:57.731Z,99667.78
2024-04-11T21:38:26.495Z,99652.88
2024-04-11T21:41:38.213Z,99655.53
2024-04-11T21:44:08.813Z,99667.78
2024-04-11T21:46:43.014Z,99663.41
2024-04-11T21:49:19.773Z,99666.06
2024-04-11T21:51:49.530Z,99663.44
2024-04-11T21:54:20.146Z,99653.78
2024-04-11T21:56:52.330Z,99650.28
2024-04-11T21:59:24.478Z,99659.09
2024-04-11T22:01:56.594Z,99657.34
2024-04-11T22:04:34.426Z,99659.13
2024-04-11T22:07:10.688Z,99661.75
2024-04-11T22:09:43.161Z,99641.56
2024-04-11T22:12:15.436Z,99597.72
2024-04-11T22:14:45.192Z,99641.56
2024-04-11T22:17:24.229Z,99663.53
2024-04-11T22:20:03.108Z,99645.09
2024-04-11T22:22:47.139Z,99648.63
2024-04-11T22:25:16.877Z,99624.06
2024-04-11T22:27:49.680Z,99634.59
2024-04-11T22:30:18.314Z,99640.72
2024-04-11T22:32:46.473Z,99620.59
2024-04-11T22:35:18.803Z,99643.41
2024-04-11T22:37:47.002Z,99632.88
2024-04-11T22:40:21.000Z,99639.88
2024-04-11T22:42:54.645Z,99645.16
2024-04-11T22:45:31.131Z,99644.25
2024-04-11T22:47:59.361Z,99642.53
2024-04-11T22:50:28.183Z,99638.13
2024-04-11T22:52:56.207Z,99635.50
2024-04-11T22:55:24.922Z,99638.13
2024-04-11T22:57:59.660Z,99638.13
2024-04-11T23:00:37.323Z,99626.69
2024-04-11T23:03:12.036Z,99627.56
2024-04-11T23:05:54.735Z,99640.72
2024-04-11T23:08:25.797Z,99632.81
2024-04-11T23:10:54.089Z,99618.78
2024-04-11T23:13:28.617Z,99630.16
2024-04-11T23:16:02.105Z,99635.41
2024-04-11T23:18:40.233Z,99626.63
2024-04-11T23:21:14.120Z,99645.91
2024-04-11T23:23:43.391Z,99624.00
2024-04-11T23:26:17.119Z,99641.47
2024-04-11T23:28:47.631Z,99633.59
2024-04-11T23:31:17.155Z,99607.25
2024-04-11T23:33:58.676Z,99632.69
2024-04-11T23:36:30.747Z,99618.59
2024-04-11T23:39:01.833Z,99650.19
2024-04-11T23:41:37.123Z,99649.31
2024-04-11T23:44:09.773Z,99623.84
2024-04-11T23:46:42.682Z,99616.78
2024-04-11T23:49:14.707Z,99628.19
2024-04-11T23:51:48.423Z,99629.03
2024-04-11T23:54:23.670Z,99620.22
2024-04-11T23:57:04.507Z,99603.50
2024-04-11T23:59:40.715Z,99621.06
